• Join FlightAware (Why Join?)
  • Login
  • US Flag 
11:51AM EDT


 

Airport Tracker/Info


-or-


 

Live Flight TrackerFlight Track Log ✈ N75ZM ✈ 18-Jun-2014 ✈ KBNA - KPDK

Flight Track Log - Related Links

Times and Time Zones

All times are in EDT time to prevent confusion due to time zone crossing. See the N75ZM flight status page for this flight to view local times or setup timezone preferences in your user account.

Time Position Orientation Groundspeed Altitude Reporting Facility
EDT Latitude Longitude Course Direction KTS MPH feet Rate Location/Type
01:25PM 36.1167 -86.6667 141° Southeast 120 138 1,100  Level Nashville TRACON
01:26PM 36.1000 -86.6500 141° Southeast 119 137 1,400 720 Climbing Nashville TRACON
01:27PM 36.0694 -86.6225 144° Southeast 119 137 2,300 720 Climbing Memphis Center
01:28PM 36.0447 -86.5928 136° Southeast 119 137 3,000 480 Climbing Memphis Center
01:29PM 36.0189 -86.5614 135° Southeast 124 143 3,400 420 Climbing Memphis Center
01:30PM 35.9875 -86.5267 138° Southeast 143 165 3,900 420 Climbing Memphis Center
01:31PM 35.9569 -86.4914 137° Southeast 144 166 4,300 420 Climbing Memphis Center
01:32PM 35.9253 -86.4556 137° Southeast 146 168 4,800 480 Climbing Memphis Center
01:33PM 35.8956 -86.4250 140° Southeast 146 168 5,300 480 Climbing Memphis Center
01:34PM 35.8597 -86.3853 138° Southeast 146 168 5,900 480 Climbing Memphis Center
01:35PM 35.8303 -86.3514 137° Southeast 145 167 6,300 420 Climbing Memphis Center
01:36PM 35.7994 -86.3192 140° Southeast 145 167 6,800 240 Climbing Memphis Center
01:37PM 35.7689 -86.2844 137° Southeast 145 167 6,900  Climbing Memphis Center
01:38PM 35.7328 -86.2467 140° Southeast 161 185 6,900  Level Memphis Center
01:39PM 35.6964 -86.2075 139° Southeast 168 193 6,900  Level Memphis Center
01:40PM 35.6617 -86.1700 139° Southeast 168 193 6,900  Level Memphis Center
01:41PM 35.6217 -86.1258 138° Southeast 167 192 6,900  Level Memphis Center
01:42PM 35.5878 -86.0906 140° Southeast 166 191 6,900  Level Memphis Center
01:43PM 35.5539 -86.0536 138° Southeast 165 190 6,900  Level Memphis Center
01:44PM 35.5194 -86.0169 139° Southeast 165 190 6,900  Level Memphis Center
01:45PM 35.4856 -85.9800 138° Southeast 165 190 6,900  Level Memphis Center
01:46PM 35.4567 -85.9361 129° Southeast 165 190 6,900  Level Memphis Center
01:47PM 35.4281 -85.8767 121° Southeast 165 190 6,900  Level Memphis Center
01:48PM 35.4061 -85.8275 119° Southeast 165 190 6,900  Level Memphis Center
01:49PM 35.3833 -85.7778 119° Southeast 166 191 6,900  Level Memphis Center
01:50PM 35.3603 -85.7289 120° Southeast 166 191 6,900  Level Memphis Center
01:51PM 35.3381 -85.6794 119° Southeast 166 191 7,000  Climbing Memphis Center
01:52PM 35.3156 -85.6311 120° Southeast 166 191 6,900 -60 Descending Memphis Center
01:53PM 35.2797 -85.5803 131° Southeast 166 191 6,900  Level Memphis Center
01:55PM 35.2489 -85.5397 133° Southeast 166 191 6,900  Level Memphis Center
01:56PM 35.2194 -85.4992 132° Southeast 165 190 6,900  Level Memphis Center
01:57PM 35.1878 -85.4572 133° Southeast 165 190 6,900  Level Memphis Center
01:58PM 35.1558 -85.4144 132° Southeast 166 191 6,900  Level Memphis Center
01:59PM 35.1242 -85.3728 133° Southeast 167 192 6,900  Level Memphis Center
02:00PM 35.0878 -85.3228 132° Southeast 167 192 6,900  Level Memphis Center
02:01PM 35.0539 -85.2778 133° Southeast 167 192 6,900  Level Memphis Center
02:02PM 35.0211 -85.2350 133° Southeast 167 192 6,900  Level Memphis Center
02:03PM 34.9933 -85.1972 132° Southeast 167 192 6,900  Level Memphis Center
02:04PM 34.9628 -85.1561 132° Southeast 167 192 6,900  Level Memphis Center
02:07PM 34.8797 -85.0389 131° Southeast 169 194 6,900  Level Atlanta Center
02:08PM 34.8381 -85.0358 177° South 163 188 7,000  Climbing Atlanta Center
02:09PM 34.7939 -85.0506 195° South 157 181 6,900 -60 Descending Atlanta Center
02:10PM 34.7481 -85.0653 195° South 162 186 6,900  Level Atlanta Center
02:11PM 34.7019 -85.0747 190° South 162 186 7,000  Climbing Atlanta Center
02:12PM 34.6581 -85.0817 187° South 162 186 6,900 -60 Descending Atlanta Center
02:13PM 34.6122 -85.0711 169° South 162 186 6,900  Level Atlanta Center
02:14PM 34.5728 -85.0403 147° Southeast 162 186 6,900  Level Atlanta Center
02:15PM 34.5378 -85.0044 140° Southeast 162 186 6,900  Level Atlanta Center
02:16PM 34.4981 -84.9814 154° Southeast 162 186 6,900  Level Atlanta Center
02:17PM 34.4544 -84.9633 161° South 162 186 6,900  Level Atlanta Center
02:18PM 34.4108 -84.9478 164° South 162 186 6,900  Level Atlanta Center
02:19PM 34.3692 -84.9322 163° South 162 186 7,000 -240 Climbing Atlanta Center
02:20PM 34.3275 -84.9217 168° South 162 186 6,500 -600 Descending Atlanta Center
02:21PM 34.2900 -84.9036 158° South 162 186 5,900 -600 Descending Atlanta Center
02:22PM 34.2547 -84.8731 144° Southeast 152 175 5,300 -540 Descending Atlanta Center
02:23PM 34.2194 -84.8453 147° Southeast 152 175 4,900 -240 Descending Atlanta Center
02:24PM 34.1947 -84.8097 130° Southeast 152 175 4,900  Level Atlanta Center
02:25PM 34.1678 -84.7694 129° Southeast 147 169 4,900  Level Atlanta Center
02:26PM 34.1408 -84.7289 129° Southeast 152 175 4,900 -240 Level Atlanta Center
02:27PM 34.1139 -84.6836 126° Southeast 158 182 4,500 -480 Descending Atlanta Center
02:28PM 34.0872 -84.6383 125° Southeast 163 188 4,000 -300 Descending Atlanta Center
02:29PM 34.0603 -84.5956 127° Southeast 163 188 3,900 -60 Descending Atlanta Center
02:30PM 34.0000 -84.5167 133° Southeast 161 185 3,900  Level Atlanta TRACON
02:31PM 33.9833 -84.4667 112° Southeast 166 191 4,000  Climbing Atlanta TRACON
02:32PM 33.9500 -84.4333 140° Southeast 167 192 4,000 -120 Level Atlanta TRACON
02:33PM 33.9333 -84.3833 112° Southeast 172 198 3,800 -720 Descending Atlanta TRACON
02:34PM 33.9000 -84.3333 129° Southeast 182 209 2,700 -900 Descending Atlanta TRACON
02:35PM 33.8667 -84.3333 180° South 109 125 2,100 -600 Descending Atlanta TRACON
02:36PM 33.8500 -84.3167 140° Southeast 105 121 1,600 -540 Descending Atlanta TRACON
02:38PM 33.8667 -84.3000 126° Southeast  Level FlightAware Approximate
02:45PM 33.8756 -84.3020 350° North  Level Estimated